Time;durP1;ratioP1;P1;durP2;ratioP2;P2;SDS_P1;SDS_P2;PMS_P1;PMS_P2;Temp;Humidity;BMP_temperature;BMP_pressure;BME280_temperature;BME280_humidity;BME280_pressure;Samples;Min_cycle;Max_cycle;Signal;HPM_P1;HPM_P2
2023/02/17 00:01:15;;;;;;;41.75;24.60;;;8.00;99.90;;;;;;5003401;28;20099;-74
2023/02/17 00:03:41;;;;;;;47.88;27.08;;;8.10;99.90;;;;;;5024798;28;20124;-74
2023/02/17 00:06:08;;;;;;;44.92;25.73;;;8.10;99.90;;;;;;5008452;28;20188;-73
2023/02/17 00:08:34;;;;;;;43.72;24.50;;;8.10;99.90;;;;;;4996127;28;20045;-74
2023/02/17 00:10:59;;;;;;;43.47;25.23;;;8.10;99.90;;;;;;5008494;28;20041;-74
2023/02/17 00:13:25;;;;;;;39.17;24.33;;;8.20;99.90;;;;;;5004134;28;20061;-73
2023/02/17 00:15:51;;;;;;;41.88;23.85;;;8.20;99.90;;;;;;5013115;28;20045;-73
2023/02/17 00:18:17;;;;;;;39.17;23.90;;;8.20;99.90;;;;;;5002368;28;20084;-74
2023/02/17 00:20:43;;;;;;;44.08;23.95;;;8.20;99.90;;;;;;5001288;28;20050;-74
2023/02/17 00:23:08;;;;;;;43.55;26.00;;;8.30;99.90;;;;;;5031101;28;20041;-74
2023/02/17 00:25:35;;;;;;;40.97;24.35;;;8.30;99.90;;;;;;5024397;28;20110;-75
2023/02/17 00:28:01;;;;;;;40.88;23.75;;;8.30;99.90;;;;;;5014186;28;20054;-74
2023/02/17 00:30:27;;;;;;;39.72;24.50;;;8.30;99.90;;;;;;5003909;28;20044;-74
2023/02/17 00:32:53;;;;;;;38.97;25.17;;;8.30;99.90;;;;;;5008624;28;20128;-75
2023/02/17 00:35:19;;;;;;;42.17;24.75;;;8.30;99.90;;;;;;5046328;28;20463;-76
2023/02/17 00:37:44;;;;;;;36.78;22.15;;;8.30;99.90;;;;;;5001249;28;20104;-76
2023/02/17 00:40:11;;;;;;;37.33;22.17;;;8.40;99.90;;;;;;5013331;28;20041;-75
2023/02/17 00:42:37;;;;;;;39.15;24.27;;;8.40;99.90;;;;;;5012120;28;20061;-76
2023/02/17 00:45:03;;;;;;;39.20;24.45;;;8.40;99.90;;;;;;4991834;28;20042;-74
2023/02/17 00:47:29;;;;;;;37.42;22.42;;;8.40;99.90;;;;;;4965172;28;20042;-75
2023/02/17 00:49:55;;;;;;;36.42;22.48;;;8.40;99.90;;;;;;5025283;28;20290;-76
2023/02/17 00:52:21;;;;;;;36.72;21.45;;;8.40;99.90;;;;;;5013472;28;20121;-76
2023/02/17 00:54:46;;;;;;;37.45;22.50;;;8.50;99.90;;;;;;5030898;28;20042;-75
2023/02/17 00:57:12;;;;;;;40.80;22.20;;;8.50;99.90;;;;;;4999422;28;20481;-74
2023/02/17 00:59:38;;;;;;;37.28;22.70;;;8.50;99.90;;;;;;5024619;28;20061;-75
2023/02/17 01:02:03;;;;;;;36.30;23.15;;;8.50;99.90;;;;;;5030276;28;20048;-76
2023/02/17 01:04:29;;;;;;;37.65;21.95;;;8.50;99.90;;;;;;5013079;28;20048;-76
2023/02/17 01:06:55;;;;;;;40.35;24.10;;;8.50;99.90;;;;;;5026321;28;20041;-76
2023/02/17 01:09:21;;;;;;;32.78;21.80;;;8.50;99.90;;;;;;5008814;28;20064;-74
2023/02/17 01:11:46;;;;;;;35.30;22.38;;;8.50;99.90;;;;;;5014090;28;20045;-76
2023/02/17 01:14:12;;;;;;;37.38;22.05;;;8.50;99.90;;;;;;5029146;28;20049;-76
2023/02/17 01:16:39;;;;;;;39.47;22.00;;;8.50;99.90;;;;;;5024519;28;20139;-76
2023/02/17 01:19:07;;;;;;;37.97;22.38;;;8.50;99.90;;;;;;5018376;28;20076;-76
2023/02/17 01:21:33;;;;;;;38.63;22.77;;;8.50;99.90;;;;;;5009896;28;20057;-75
2023/02/17 01:24:01;;;;;;;36.25;23.95;;;8.50;99.90;;;;;;5026396;28;20050;-76
2023/02/17 01:26:27;;;;;;;35.20;22.52;;;8.50;99.90;;;;;;5010350;28;20054;-73
2023/02/17 01:28:53;;;;;;;35.55;20.63;;;8.50;99.90;;;;;;4992231;28;20123;-76
2023/02/17 01:31:19;;;;;;;34.50;22.13;;;8.50;99.90;;;;;;5001314;28;20042;-74
2023/02/17 01:33:45;;;;;;;33.78;20.58;;;8.60;99.90;;;;;;4996103;28;20053;-74
2023/02/17 01:36:12;;;;;;;32.25;20.67;;;8.50;99.90;;;;;;5001055;28;20107;-76
2023/02/17 01:38:38;;;;;;;34.55;22.38;;;8.60;99.90;;;;;;4998375;28;20600;-76
2023/02/17 01:41:05;;;;;;;35.40;20.35;;;8.60;99.90;;;;;;5007733;28;20049;-75
2023/02/17 01:43:30;;;;;;;34.60;22.20;;;8.60;99.90;;;;;;5024063;28;20060;-76
2023/02/17 01:45:57;;;;;;;40.75;24.25;;;8.50;99.90;;;;;;5019735;28;20053;-76
2023/02/17 01:48:34;;;;;;;36.10;21.38;;;8.50;99.90;;;;;;5005971;28;20481;-74
2023/02/17 01:51:25;;;;;;;38.17;21.75;;;8.60;99.90;;;;;;5026362;28;20146;-76
2023/02/17 01:54:03;;;;;;;32.88;19.67;;;8.50;99.90;;;;;;5019470;28;20056;-75
2023/02/17 01:56:29;;;;;;;33.40;20.63;;;8.50;99.90;;;;;;5027046;28;20056;-75
2023/02/17 01:58:59;;;;;;;36.72;20.92;;;8.50;99.90;;;;;;5011263;28;20042;-75
2023/02/17 02:01:25;;;;;;;35.33;23.60;;;8.60;99.90;;;;;;5030830;28;20187;-74
2023/02/17 02:03:51;;;;;;;34.42;20.83;;;8.50;99.90;;;;;;5003583;28;20715;-73
2023/02/17 02:06:19;;;;;;;38.28;21.58;;;8.60;99.90;;;;;;5022936;28;20214;-75
2023/02/17 02:09:22;;;;;;;32.53;20.90;;;8.50;99.90;;;;;;5027343;28;20131;-75
2023/02/17 02:11:49;;;;;;;33.75;21.25;;;8.50;99.90;;;;;;5024253;28;20041;-74
2023/02/17 02:14:15;;;;;;;33.33;20.98;;;8.50;99.90;;;;;;4996329;28;20042;-75
2023/02/17 02:17:08;;;;;;;29.27;19.40;;;8.50;99.90;;;;;;5001517;28;20099;-75
2023/02/17 02:19:51;;;;;;;30.70;19.70;;;8.60;99.90;;;;;;5018054;28;20045;-75
2023/02/17 02:22:27;;;;;;;32.40;20.30;;;8.60;99.90;;;;;;5003746;28;20532;-75
2023/02/17 02:25:05;;;;;;;32.80;20.52;;;8.60;99.90;;;;;;5020624;28;20053;-75
2023/02/17 02:28:13;;;;;;;35.88;19.83;;;8.60;99.90;;;;;;5017845;28;20045;-75
2023/02/17 02:30:44;;;;;;;35.10;21.30;;;8.60;99.90;;;;;;5019232;28;20049;-75
2023/02/17 02:33:40;;;;;;;32.67;19.88;;;8.60;99.90;;;;;;5006353;28;20049;-75
2023/02/17 02:36:10;;;;;;;32.95;19.65;;;8.50;99.90;;;;;;5003133;28;20045;-75
2023/02/17 02:38:49;;;;;;;35.10;21.95;;;8.60;99.90;;;;;;5013106;28;20049;-75
2023/02/17 02:41:30;;;;;;;31.70;20.27;;;8.50;99.90;;;;;;5003037;28;20049;-74
2023/02/17 02:43:55;;;;;;;34.58;21.90;;;8.50;99.90;;;;;;5031996;28;20052;-75
2023/02/17 02:46:21;;;;;;;36.50;22.35;;;8.50;99.90;;;;;;5002545;28;20042;-75
2023/02/17 02:48:47;;;;;;;33.17;21.52;;;8.40;99.90;;;;;;5014898;28;20428;-75
2023/02/17 02:51:13;;;;;;;40.80;23.13;;;8.40;99.90;;;;;;5028841;28;20067;-75
2023/02/17 02:53:42;;;;;;;34.50;21.02;;;8.40;99.90;;;;;;5013078;28;20042;-75
2023/02/17 02:56:17;;;;;;;34.20;21.25;;;8.40;99.90;;;;;;5036123;28;20073;-74
2023/02/17 02:58:49;;;;;;;32.13;20.48;;;8.40;99.90;;;;;;5009136;28;20073;-74
2023/02/17 03:01:32;;;;;;;31.40;20.50;;;8.40;99.90;;;;;;5020445;28;20045;-75
2023/02/17 03:04:07;;;;;;;36.80;22.98;;;8.40;99.90;;;;;;5019057;28;20468;-75
2023/02/17 03:06:47;;;;;;;35.13;23.50;;;8.40;99.90;;;;;;5014512;28;20056;-75
2023/02/17 03:09:23;;;;;;;32.70;20.58;;;8.40;99.90;;;;;;5013449;28;20187;-74
2023/02/17 03:11:49;;;;;;;30.92;20.27;;;8.40;99.90;;;;;;5040577;28;20057;-74
2023/02/17 03:14:18;;;;;;;33.33;22.15;;;8.40;99.90;;;;;;5045918;28;20076;-74
2023/02/17 03:16:43;;;;;;;39.10;22.70;;;8.40;99.90;;;;;;4995185;28;20049;-74
2023/02/17 03:19:09;;;;;;;34.40;21.10;;;8.40;99.90;;;;;;5026853;28;20095;-74
2023/02/17 03:21:49;;;;;;;29.63;19.92;;;8.40;99.90;;;;;;5019277;28;20049;-74
2023/02/17 03:24:14;;;;;;;34.95;21.60;;;8.40;99.90;;;;;;5008923;28;20060;-74
2023/02/17 03:26:40;;;;;;;35.58;21.00;;;8.40;99.90;;;;;;5016302;28;20042;-75
2023/02/17 03:29:06;;;;;;;30.75;20.35;;;8.40;99.90;;;;;;5018035;28;20061;-74
2023/02/17 03:31:32;;;;;;;31.15;21.02;;;8.40;99.90;;;;;;5030681;28;20052;-74
2023/02/17 03:33:58;;;;;;;32.10;20.08;;;8.40;99.90;;;;;;5016723;28;20041;-74
2023/02/17 03:36:24;;;;;;;29.80;19.95;;;8.40;99.90;;;;;;5015541;28;20034;-74
2023/02/17 03:38:50;;;;;;;28.75;19.52;;;8.40;99.90;;;;;;5008060;28;20057;-74
2023/02/17 03:41:16;;;;;;;29.17;19.80;;;8.50;99.90;;;;;;5016173;28;20045;-74
2023/02/17 03:43:41;;;;;;;29.92;19.58;;;8.50;99.90;;;;;;5024931;28;20046;-74
2023/02/17 03:46:11;;;;;;;29.48;19.10;;;8.50;99.90;;;;;;5013138;28;20057;-74
2023/02/17 03:48:37;;;;;;;27.45;19.42;;;8.50;99.90;;;;;;4989544;28;20053;-74
2023/02/17 03:51:10;;;;;;;33.10;20.48;;;8.50;99.90;;;;;;5020242;28;20057;-74
2023/02/17 03:53:37;;;;;;;28.17;18.98;;;8.50;99.90;;;;;;5025421;28;20077;-74
2023/02/17 03:56:05;;;;;;;31.70;19.40;;;8.50;99.90;;;;;;5007371;28;20172;-74
2023/02/17 03:58:31;;;;;;;31.20;20.38;;;8.60;99.90;;;;;;4977572;28;20056;-74
2023/02/17 04:00:57;;;;;;;26.63;19.23;;;8.60;99.90;;;;;;5007098;28;20046;-74
2023/02/17 04:03:22;;;;;;;27.70;19.05;;;8.50;99.90;;;;;;5015062;28;20394;-74
2023/02/17 04:05:48;;;;;;;34.40;21.65;;;8.60;99.90;;;;;;5030811;28;20073;-74
2023/02/17 04:08:14;;;;;;;33.25;21.65;;;8.60;99.90;;;;;;5032953;28;20072;-75
2023/02/17 04:10:39;;;;;;;28.55;18.40;;;8.60;99.90;;;;;;4986149;28;20042;-74
2023/02/17 04:13:05;;;;;;;28.95;20.05;;;8.60;99.90;;;;;;4994008;28;20052;-74
2023/02/17 04:15:31;;;;;;;31.95;21.40;;;8.60;99.90;;;;;;5011440;28;20049;-74
2023/02/17 04:17:56;;;;;;;32.53;21.48;;;8.60;99.90;;;;;;5001140;28;20132;-74
2023/02/17 04:20:23;;;;;;;28.90;20.35;;;8.60;99.90;;;;;;4997455;28;20037;-75
2023/02/17 04:22:49;;;;;;;26.75;19.55;;;8.60;99.90;;;;;;5006978;28;20046;-75
2023/02/17 04:25:15;;;;;;;28.77;19.23;;;8.70;99.90;;;;;;5021607;28;20104;-74
2023/02/17 04:27:44;;;;;;;26.23;18.50;;;8.70;99.90;;;;;;5045899;28;20042;-74
2023/02/17 04:30:15;;;;;;;26.02;18.65;;;8.70;99.90;;;;;;5017541;28;20048;-74
2023/02/17 04:32:41;;;;;;;27.15;18.10;;;8.70;99.90;;;;;;4999539;28;20099;-75
2023/02/17 04:35:07;;;;;;;26.23;18.08;;;8.70;99.90;;;;;;5022036;28;20409;-74
2023/02/17 04:37:33;;;;;;;25.50;19.05;;;8.70;99.90;;;;;;5006496;28;20129;-74
2023/02/17 04:39:58;;;;;;;28.90;19.40;;;8.60;99.90;;;;;;5005284;28;20038;-74
2023/02/17 04:42:24;;;;;;;28.73;19.67;;;8.70;99.90;;;;;;5008163;28;20037;-74
2023/02/17 04:44:50;;;;;;;25.67;18.65;;;8.60;99.90;;;;;;5004784;28;20041;-74
2023/02/17 04:47:16;;;;;;;26.23;18.65;;;8.70;99.90;;;;;;4998816;28;20042;-76
2023/02/17 04:49:42;;;;;;;29.23;20.95;;;8.70;99.90;;;;;;5022109;28;20466;-76
2023/02/17 04:52:08;;;;;;;27.88;18.83;;;8.60;99.90;;;;;;5028479;28;20076;-77
2023/02/17 04:54:33;;;;;;;28.45;18.73;;;8.70;99.90;;;;;;5028026;28;20037;-76
2023/02/17 04:56:59;;;;;;;28.67;19.25;;;8.70;99.90;;;;;;5045649;28;20557;-76
2023/02/17 04:59:25;;;;;;;24.23;17.98;;;8.60;99.90;;;;;;5050398;28;20561;-76
2023/02/17 05:01:50;;;;;;;29.35;19.27;;;8.60;99.90;;;;;;5001142;28;20053;-77
2023/02/17 05:04:16;;;;;;;30.35;21.55;;;8.60;99.90;;;;;;5009983;28;20144;-76
2023/02/17 05:06:42;;;;;;;28.38;18.10;;;8.60;99.90;;;;;;5005367;28;20054;-76
2023/02/17 05:09:08;;;;;;;27.45;19.45;;;8.60;99.90;;;;;;5041781;28;20073;-76
2023/02/17 05:11:33;;;;;;;29.33;19.35;;;8.60;99.90;;;;;;5015280;28;20042;-76
2023/02/17 05:13:59;;;;;;;28.10;20.10;;;8.60;99.90;;;;;;4999592;28;20033;-76
2023/02/17 05:16:25;;;;;;;30.88;20.83;;;8.60;99.90;;;;;;5021882;28;20045;-77
2023/02/17 05:18:50;;;;;;;34.15;21.50;;;8.60;99.90;;;;;;5021731;28;20050;-77
2023/02/17 05:21:16;;;;;;;26.60;19.23;;;8.60;99.90;;;;;;5022759;28;20094;-76
2023/02/17 05:23:42;;;;;;;27.80;19.38;;;8.60;99.90;;;;;;4998612;28;20133;-75
2023/02/17 05:26:08;;;;;;;28.60;19.75;;;8.60;99.90;;;;;;5027766;28;20045;-76
2023/02/17 05:28:34;;;;;;;32.30;21.33;;;8.60;99.90;;;;;;5003397;28;20060;-76
2023/02/17 05:31:01;;;;;;;29.95;21.40;;;8.60;99.90;;;;;;4999326;28;20042;-77
2023/02/17 05:33:26;;;;;;;31.73;21.33;;;8.60;99.90;;;;;;5029831;28;20045;-76
2023/02/17 05:35:52;;;;;;;33.67;21.65;;;8.60;99.90;;;;;;5022606;28;20045;-76
2023/02/17 05:38:18;;;;;;;32.92;22.95;;;8.60;99.90;;;;;;5012404;28;20424;-76
2023/02/17 05:40:44;;;;;;;31.25;21.73;;;8.60;99.90;;;;;;4994991;28;20144;-77
2023/02/17 05:43:09;;;;;;;33.35;23.00;;;8.50;99.90;;;;;;4997335;28;20095;-76
2023/02/17 05:45:35;;;;;;;35.25;23.13;;;8.60;99.90;;;;;;5030776;28;20111;-77
2023/02/17 05:48:01;;;;;;;34.80;24.52;;;8.60;99.90;;;;;;4985861;28;20045;-76
2023/02/17 05:50:26;;;;;;;31.52;22.95;;;8.50;99.90;;;;;;5015138;28;20065;-77
2023/02/17 05:52:53;;;;;;;29.85;21.73;;;8.60;99.90;;;;;;4994794;28;20045;-77
2023/02/17 05:55:21;;;;;;;32.22;21.40;;;8.60;99.90;;;;;;5004429;28;20446;-76
2023/02/17 05:57:46;;;;;;;28.42;21.35;;;8.50;99.90;;;;;;5025061;28;20050;-76
2023/02/17 06:00:13;;;;;;;31.58;20.77;;;8.50;99.90;;;;;;4997665;28;20524;-77
2023/02/17 06:02:39;;;;;;;30.00;20.58;;;8.60;99.90;;;;;;4999102;28;20045;-77
2023/02/17 06:05:05;;;;;;;26.98;19.33;;;8.60;99.90;;;;;;4993316;28;20053;-77
2023/02/17 06:07:31;;;;;;;31.60;19.40;;;8.60;99.90;;;;;;5015310;28;20044;-76
2023/02/17 06:09:56;;;;;;;28.20;19.48;;;8.60;99.90;;;;;;5031235;28;20041;-77
2023/02/17 06:12:23;;;;;;;30.08;20.67;;;8.70;99.90;;;;;;5016866;28;20041;-77
2023/02/17 06:14:48;;;;;;;29.30;20.13;;;8.70;99.90;;;;;;5033836;28;20041;-77
2023/02/17 06:17:14;;;;;;;26.08;19.50;;;8.70;99.90;;;;;;4999304;28;20481;-77
2023/02/17 06:19:41;;;;;;;26.00;19.38;;;8.70;99.90;;;;;;4984421;28;20046;-76
2023/02/17 06:22:07;;;;;;;27.17;18.67;;;8.80;99.90;;;;;;5016999;28;20080;-77
2023/02/17 06:24:32;;;;;;;30.25;17.92;;;8.80;99.90;;;;;;5045939;28;20045;-77
2023/02/17 06:26:59;;;;;;;23.40;17.42;;;8.80;99.90;;;;;;5024739;28;20088;-77
2023/02/17 06:29:26;;;;;;;28.73;18.98;;;8.80;99.90;;;;;;5011842;28;20128;-77
2023/02/17 06:31:52;;;;;;;23.27;17.80;;;8.80;99.90;;;;;;5032990;28;20042;-77
2023/02/17 06:34:18;;;;;;;23.13;17.80;;;8.80;99.90;;;;;;5006942;28;20046;-77
2023/02/17 06:36:43;;;;;;;24.63;18.15;;;8.80;99.90;;;;;;5016400;28;20525;-77
2023/02/17 06:39:09;;;;;;;23.30;17.52;;;8.90;99.90;;;;;;5010420;28;20049;-77
2023/02/17 06:41:35;;;;;;;25.55;18.33;;;8.90;99.90;;;;;;5000082;28;20544;-77
2023/02/17 06:44:01;;;;;;;23.15;17.70;;;9.00;99.90;;;;;;4999682;28;20123;-77
2023/02/17 06:46:27;;;;;;;21.27;15.45;;;9.00;99.90;;;;;;5016125;28;20073;-77
2023/02/17 06:48:52;;;;;;;23.35;17.40;;;8.90;99.90;;;;;;5042242;28;20419;-77
2023/02/17 06:51:18;;;;;;;26.00;17.58;;;9.00;99.90;;;;;;5026993;28;20439;-77
2023/02/17 06:53:44;;;;;;;23.15;15.65;;;9.00;99.90;;;;;;5014245;28;20048;-77
2023/02/17 06:56:10;;;;;;;22.27;16.73;;;9.00;99.90;;;;;;4995752;28;20381;-78
2023/02/17 06:58:36;;;;;;;24.90;15.98;;;9.00;99.90;;;;;;5013090;28;20747;-76
2023/02/17 07:01:02;;;;;;;21.17;16.30;;;9.00;99.90;;;;;;4995020;28;20474;-76
2023/02/17 07:03:28;;;;;;;23.00;16.02;;;9.00;99.90;;;;;;5021318;28;20049;-77
2023/02/17 07:05:57;;;;;;;23.35;16.42;;;9.10;99.90;;;;;;5014610;28;20048;-77
2023/02/17 07:08:23;;;;;;;24.45;17.17;;;9.10;99.90;;;;;;4996762;28;20103;-77
2023/02/17 07:10:49;;;;;;;22.27;16.83;;;9.10;99.90;;;;;;5008347;28;20045;-76
2023/02/17 07:13:15;;;;;;;22.02;16.05;;;9.10;99.90;;;;;;5009668;28;20049;-77
2023/02/17 07:15:41;;;;;;;21.70;16.30;;;9.20;99.90;;;;;;4994088;28;20080;-77
2023/02/17 07:18:06;;;;;;;21.17;15.75;;;9.20;99.90;;;;;;5033616;28;20135;-78
2023/02/17 07:20:32;;;;;;;26.55;15.65;;;9.20;99.90;;;;;;5005072;28;20045;-77
2023/02/17 07:22:59;;;;;;;21.65;16.00;;;9.20;99.90;;;;;;5003750;28;20077;-78
2023/02/17 07:25:25;;;;;;;22.67;15.15;;;9.20;99.90;;;;;;4999974;28;20060;-77
2023/02/17 07:27:50;;;;;;;26.73;15.80;;;9.20;99.90;;;;;;5002727;28;20045;-77
2023/02/17 07:30:16;;;;;;;20.83;15.63;;;9.30;99.90;;;;;;5000236;28;20068;-77
2023/02/17 07:32:42;;;;;;;23.65;16.33;;;9.30;99.90;;;;;;5014727;28;20033;-78
2023/02/17 07:35:08;;;;;;;21.98;14.50;;;9.40;99.90;;;;;;5006882;28;20046;-77
2023/02/17 07:37:34;;;;;;;21.17;15.05;;;9.40;99.90;;;;;;4999113;28;20047;-77
2023/02/17 07:40:00;;;;;;;20.45;14.65;;;9.40;99.90;;;;;;5009990;28;20099;-76
2023/02/17 07:42:28;;;;;;;19.92;14.57;;;9.50;99.90;;;;;;5022956;28;20212;-77
2023/02/17 07:44:54;;;;;;;36.15;23.00;;;9.50;99.90;;;;;;5019978;28;20045;-77
2023/02/17 07:47:20;;;;;;;23.52;17.42;;;9.50;99.90;;;;;;5016982;28;20413;-76
2023/02/17 07:49:46;;;;;;;23.80;17.27;;;9.50;99.90;;;;;;5018161;28;20065;-77
2023/02/17 07:52:11;;;;;;;23.10;16.10;;;9.60;99.90;;;;;;4979146;28;20753;-78
2023/02/17 07:54:37;;;;;;;22.65;15.63;;;9.70;99.90;;;;;;5009585;28;20034;-77
2023/02/17 07:57:03;;;;;;;22.00;16.10;;;9.70;99.90;;;;;;5014882;28;20105;-77
2023/02/17 07:59:29;;;;;;;23.05;16.55;;;9.80;99.90;;;;;;5000018;28;20144;-77
2023/02/17 08:01:55;;;;;;;18.70;14.75;;;9.80;99.90;;;;;;5031350;28;20068;-76
2023/02/17 08:04:22;;;;;;;19.83;14.80;;;9.90;99.90;;;;;;4999462;28;20038;-77
2023/02/17 08:06:48;;;;;;;21.83;15.40;;;9.90;99.90;;;;;;5025028;28;20442;-77
2023/02/17 08:14:42;;;;;;;20.52;14.43;;;10.10;99.90;;;;;;5038301;28;20454;-79
2023/02/17 08:17:07;;;;;;;17.83;13.30;;;10.10;99.90;;;;;;5022610;28;20092;-77
2023/02/17 08:19:33;;;;;;;16.30;12.95;;;10.20;99.90;;;;;;5017113;28;20041;-78
2023/02/17 08:21:59;;;;;;;16.60;12.90;;;10.20;99.90;;;;;;4996635;28;20566;-77
2023/02/17 08:24:26;;;;;;;16.23;12.63;;;10.30;99.90;;;;;;5033472;28;20053;-79
2023/02/17 08:26:51;;;;;;;16.88;11.52;;;10.30;99.90;;;;;;5031180;28;20041;-76
2023/02/17 08:29:19;;;;;;;18.50;13.00;;;10.40;99.90;;;;;;5016173;28;20041;-77
2023/02/17 08:31:44;;;;;;;14.82;11.60;;;10.50;99.90;;;;;;5043741;28;20403;-77
2023/02/17 08:34:11;;;;;;;13.63;10.93;;;10.50;99.90;;;;;;5019556;28;20033;-76
2023/02/17 08:36:37;;;;;;;16.33;11.27;;;10.60;99.90;;;;;;5025543;28;20073;-78
2023/02/17 08:39:04;;;;;;;13.55;10.13;;;10.60;99.90;;;;;;5005171;28;20403;-78
2023/02/17 08:41:32;;;;;;;12.48;9.82;;;10.60;99.90;;;;;;5018340;28;20076;-77
2023/02/17 08:43:58;;;;;;;15.38;11.32;;;10.60;99.90;;;;;;5022401;28;20048;-76
2023/02/17 08:46:24;;;;;;;12.90;10.27;;;10.60;99.90;;;;;;5034046;28;20448;-76
2023/02/17 08:48:50;;;;;;;19.00;14.00;;;10.70;99.90;;;;;;5017941;28;20045;-77
2023/02/17 08:51:22;;;;;;;15.73;10.50;;;10.70;99.90;;;;;;4975657;28;20085;-76
2023/02/17 08:53:48;;;;;;;14.60;10.95;;;10.70;99.90;;;;;;5020867;28;20045;-77
2023/02/17 08:56:14;;;;;;;12.05;9.38;;;10.70;99.90;;;;;;4992947;28;20103;-76
2023/02/17 08:58:40;;;;;;;14.60;9.48;;;10.70;99.90;;;;;;5033643;28;20477;-77
2023/02/17 09:01:05;;;;;;;13.43;9.82;;;10.70;99.90;;;;;;5023109;28;20703;-76
2023/02/17 09:03:36;;;;;;;13.90;9.00;;;10.70;99.90;;;;;;5008321;28;20076;-76
2023/02/17 09:06:02;;;;;;;14.57;9.52;;;10.70;99.90;;;;;;5008945;28;20054;-77
2023/02/17 09:08:28;;;;;;;14.15;9.95;;;10.80;99.90;;;;;;5029053;28;20057;-77
2023/02/17 09:10:54;;;;;;;12.45;9.30;;;10.80;99.90;;;;;;5005750;28;20462;-76
2023/02/17 09:13:19;;;;;;;14.18;10.38;;;10.80;99.90;;;;;;5005208;28;20038;-76
2023/02/17 09:15:45;;;;;;;14.63;9.45;;;10.80;99.90;;;;;;5005126;28;20049;-76
2023/02/17 09:18:11;;;;;;;11.82;8.80;;;10.90;99.90;;;;;;5023502;28;20164;-77
2023/02/17 09:20:38;;;;;;;15.43;11.05;;;10.90;99.90;;;;;;5003760;28;20132;-76
2023/02/17 09:23:06;;;;;;;15.15;9.43;;;10.90;99.90;;;;;;5026883;28;20041;-77
2023/02/17 09:25:32;;;;;;;13.70;10.57;;;10.90;99.90;;;;;;5029722;28;20076;-78
2023/02/17 09:27:58;;;;;;;13.30;9.95;;;10.90;99.90;;;;;;5006747;28;20494;-76
2023/02/17 09:30:24;;;;;;;12.43;9.68;;;10.90;99.90;;;;;;5002821;28;20431;-76
2023/02/17 09:32:50;;;;;;;12.45;9.38;;;10.90;99.90;;;;;;5029380;28;20179;-78
2023/02/17 09:35:17;;;;;;;14.35;9.55;;;11.00;99.90;;;;;;5033121;28;20049;-76
2023/02/17 09:37:43;;;;;;;11.73;9.02;;;11.10;99.90;;;;;;5027398;28;20064;-77
2023/02/17 09:40:15;;;;;;;11.90;9.05;;;11.10;99.90;;;;;;5027767;28;20754;-76
2023/02/17 09:42:42;;;;;;;13.00;9.40;;;11.10;99.90;;;;;;5025385;28;20053;-77
2023/02/17 09:45:27;;;;;;;14.68;11.75;;;11.10;99.90;;;;;;5031588;28;20041;-76
2023/02/17 09:47:58;;;;;;;14.27;10.57;;;11.20;99.90;;;;;;5028352;28;20049;-76
2023/02/17 09:50:24;;;;;;;12.85;9.88;;;11.10;99.90;;;;;;5026559;28;20065;-76
2023/02/17 09:53:31;;;;;;;12.35;9.60;;;11.10;99.90;;;;;;5030335;28;20358;-76
2023/02/17 09:56:04;;;;;;;12.85;9.50;;;11.20;99.90;;;;;;5042060;28;20042;-76
2023/02/17 09:58:38;;;;;;;12.27;9.43;;;11.20;99.90;;;;;;5016058;28;20524;-76
2023/02/17 10:01:11;;;;;;;11.73;9.48;;;11.30;99.90;;;;;;5010547;28;20513;-76
2023/02/17 10:03:42;;;;;;;12.43;9.18;;;11.30;99.90;;;;;;5011972;28;20054;-77
2023/02/17 10:06:08;;;;;;;13.43;8.77;;;11.30;99.90;;;;;;4995017;28;20049;-77
2023/02/17 10:08:57;;;;;;;11.50;8.88;;;11.30;99.90;;;;;;5029235;28;20049;-77
2023/02/17 10:11:33;;;;;;;15.55;9.32;;;11.40;99.90;;;;;;5010169;28;20045;-77
2023/02/17 10:14:02;;;;;;;10.70;8.77;;;11.40;99.90;;;;;;4990865;28;20385;-78
2023/02/17 10:16:31;;;;;;;12.85;9.57;;;11.40;99.90;;;;;;5019682;28;20061;-76
2023/02/17 10:19:22;;;;;;;12.20;8.85;;;11.40;99.90;;;;;;5001624;28;20189;-76
2023/02/17 10:22:16;;;;;;;12.18;8.85;;;11.50;99.90;;;;;;5024231;28;20489;-76
2023/02/17 10:24:41;;;;;;;12.10;8.25;;;11.50;99.90;;;;;;5000436;28;20045;-76
2023/02/17 10:27:24;;;;;;;9.93;8.23;;;11.50;99.90;;;;;;5011966;28;20038;-76
2023/02/17 10:29:51;;;;;;;10.35;8.32;;;11.50;99.90;;;;;;5023379;28;20465;-76
2023/02/17 10:32:21;;;;;;;9.98;7.60;;;11.50;99.90;;;;;;5015717;28;20041;-77
2023/02/17 10:34:53;;;;;;;10.43;8.02;;;11.60;99.90;;;;;;4994627;28;20042;-78
2023/02/17 10:37:47;;;;;;;13.25;8.75;;;11.60;99.90;;;;;;5007295;28;20033;-77
2023/02/17 10:40:23;;;;;;;12.05;8.05;;;11.60;99.90;;;;;;4995936;28;20053;-77
2023/02/17 10:42:53;;;;;;;10.85;8.45;;;11.60;99.90;;;;;;4991548;28;20365;-76
2023/02/17 10:45:31;;;;;;;10.27;8.23;;;11.70;99.90;;;;;;5021477;28;20041;-78
2023/02/17 10:48:06;;;;;;;10.85;7.85;;;11.70;99.90;;;;;;5031357;28;20060;-77
2023/02/17 10:50:32;;;;;;;12.52;7.85;;;11.70;99.90;;;;;;5010155;28;20128;-78
2023/02/17 10:52:58;;;;;;;9.73;7.70;;;11.70;99.90;;;;;;5026120;28;20041;-76
2023/02/17 10:55:37;;;;;;;10.13;8.10;;;11.70;99.90;;;;;;4998554;28;20045;-77
2023/02/17 10:58:20;;;;;;;11.00;8.60;;;11.80;99.90;;;;;;5027953;28;20045;-76
2023/02/17 11:00:48;;;;;;;10.70;8.48;;;11.80;99.90;;;;;;4998000;28;20045;-77
2023/02/17 11:03:29;;;;;;;12.43;8.80;;;11.80;99.90;;;;;;5005682;28;20056;-77
2023/02/17 11:05:56;;;;;;;11.13;9.25;;;11.90;99.90;;;;;;5012027;28;20088;-77
2023/02/17 11:08:33;;;;;;;14.95;9.98;;;11.90;99.90;;;;;;5022714;28;20041;-77
2023/02/17 11:11:06;;;;;;;15.63;10.52;;;11.90;99.90;;;;;;5014954;28;20041;-77
2023/02/17 11:13:36;;;;;;;15.10;10.25;;;11.90;99.90;;;;;;5016653;28;20482;-76
2023/02/17 11:16:03;;;;;;;11.43;9.07;;;11.90;99.90;;;;;;5027791;28;20048;-77
2023/02/17 11:18:31;;;;;;;12.82;9.48;;;11.90;99.90;;;;;;4994441;28;20041;-76
2023/02/17 11:21:03;;;;;;;15.55;9.38;;;11.90;99.90;;;;;;5025903;28;20045;-77
2023/02/17 11:23:28;;;;;;;13.60;9.02;;;11.90;99.90;;;;;;5029643;28;20405;-77
2023/02/17 11:26:21;;;;;;;12.95;10.10;;;11.90;99.90;;;;;;5021583;28;20038;-78
2023/02/17 11:28:46;;;;;;;13.05;8.75;;;12.00;99.90;;;;;;5020640;28;20045;-78
2023/02/17 11:31:26;;;;;;;11.15;8.73;;;12.00;99.90;;;;;;5019757;28;20052;-78
2023/02/17 11:33:52;;;;;;;12.40;8.57;;;12.00;99.90;;;;;;4993254;28;20049;-77
2023/02/17 11:36:28;;;;;;;12.85;8.63;;;12.00;99.90;;;;;;5007964;28;20045;-78
2023/02/17 11:38:54;;;;;;;12.10;9.10;;;12.10;99.90;;;;;;4992509;28;20050;-76
2023/02/17 11:41:20;;;;;;;12.35;8.75;;;12.10;99.90;;;;;;4995926;28;20550;-77
2023/02/17 11:43:51;;;;;;;12.27;8.90;;;12.10;99.90;;;;;;4984044;28;20170;-77
2023/02/17 11:46:22;;;;;;;14.77;10.10;;;12.20;99.90;;;;;;5013260;28;20042;-76
2023/02/17 11:49:15;;;;;;;14.73;10.13;;;12.30;99.90;;;;;;5005215;28;20136;-76
2023/02/17 11:51:51;;;;;;;14.50;8.65;;;12.40;99.90;;;;;;5013940;28;20450;-76
2023/02/17 11:54:24;;;;;;;12.05;8.45;;;12.40;99.90;;;;;;5025609;28;20041;-77
2023/02/17 11:56:57;;;;;;;13.27;8.25;;;12.40;99.90;;;;;;5026708;28;20034;-77
2023/02/17 11:59:39;;;;;;;12.32;9.15;;;12.50;99.90;;;;;;5019112;28;20131;-77
2023/02/17 12:02:12;;;;;;;11.95;9.00;;;12.60;99.90;;;;;;5010071;28;20048;-78
2023/02/17 12:05:03;;;;;;;11.07;8.02;;;12.60;99.90;;;;;;5031942;28;20089;-77
2023/02/17 12:07:39;;;;;;;11.82;7.95;;;12.80;99.90;;;;;;4995011;28;20484;-77
2023/02/17 12:10:42;;;;;;;9.90;7.40;;;12.80;99.90;;;;;;5005957;28;20045;-78
2023/02/17 12:13:25;;;;;;;9.25;7.13;;;12.90;99.90;;;;;;4998046;28;20037;-77
2023/02/17 12:16:26;;;;;;;10.85;6.95;;;12.90;99.90;;;;;;5012688;28;20041;-78
2023/02/17 12:19:00;;;;;;;11.20;7.55;;;12.90;99.90;;;;;;5034793;28;20045;-78
2023/02/17 12:21:42;;;;;;;10.35;7.40;;;13.10;99.90;;;;;;5013772;28;20068;-78
2023/02/17 12:24:40;;;;;;;10.60;7.68;;;13.20;99.90;;;;;;5008371;28;20375;-76
2023/02/17 12:27:50;;;;;;;10.55;7.25;;;13.20;99.90;;;;;;5015090;28;20041;-78
2023/02/17 12:30:22;;;;;;;7.85;6.60;;;13.30;99.90;;;;;;5041425;28;20060;-78
2023/02/17 12:33:26;;;;;;;9.75;7.38;;;13.50;99.90;;;;;;5021186;28;20129;-79
2023/02/17 12:36:13;;;;;;;9.00;6.97;;;13.50;99.90;;;;;;5015100;28;20132;-77
2023/02/17 12:38:58;;;;;;;11.83;7.30;;;13.60;99.90;;;;;;5000903;28;20044;-76
2023/02/17 12:41:34;;;;;;;9.75;7.25;;;13.60;99.90;;;;;;4997966;28;20037;-76
2023/02/17 12:44:23;;;;;;;7.75;6.35;;;13.70;99.90;;;;;;5043902;28;20068;-77
2023/02/17 12:46:51;;;;;;;12.13;7.72;;;13.50;99.90;;;;;;5033384;28;20041;-76
2023/02/17 12:49:59;;;;;;;15.27;7.25;;;13.40;99.90;;;;;;5001209;28;20137;-77
2023/02/17 12:52:46;;;;;;;9.45;7.47;;;13.40;99.90;;;;;;5010110;28;20505;-78
2023/02/17 12:55:13;;;;;;;10.05;8.30;;;13.30;99.90;;;;;;5010082;28;20112;-77